Time;durP1;ratioP1;P1;durP2;ratioP2;P2;SDS_P1;SDS_P2;PMS_P1;PMS_P2;Temp;Humidity;BMP_temperature;BMP_pressure;BME280_temperature;BME280_humidity;BME280_pressure;Samples;Min_cycle;Max_cycle;Signal;HPM_P1;HPM_P2
2022/12/31 00:00:09;;;;;;;9.70;4.68;;;11.80;99.90;;;;;;5073542;28;20051;-78
2022/12/31 00:02:34;;;;;;;8.50;4.95;;;11.80;99.90;;;;;;5092348;28;20048;-78
2022/12/31 00:05:00;;;;;;;9.35;5.20;;;11.80;99.90;;;;;;5086525;28;20040;-78
2022/12/31 00:07:27;;;;;;;10.73;5.38;;;11.80;99.90;;;;;;5059057;28;20075;-78
2022/12/31 00:09:52;;;;;;;9.90;5.45;;;11.80;99.90;;;;;;5085177;28;20135;-78
2022/12/31 00:12:18;;;;;;;10.57;5.80;;;11.70;99.90;;;;;;5086393;28;20281;-78
2022/12/31 00:14:43;;;;;;;13.25;7.88;;;11.70;99.90;;;;;;5085488;28;20040;-78
2022/12/31 00:17:09;;;;;;;22.02;17.73;;;11.70;99.90;;;;;;5083670;28;20051;-78
2022/12/31 00:19:35;;;;;;;27.25;22.00;;;11.70;99.90;;;;;;5087497;28;20043;-78
2022/12/31 00:22:00;;;;;;;15.48;11.63;;;11.70;99.90;;;;;;5083148;28;20040;-78
2022/12/31 00:24:29;;;;;;;12.10;7.28;;;11.60;99.90;;;;;;5078185;28;20044;-78
2022/12/31 00:26:55;;;;;;;10.75;6.65;;;11.60;99.90;;;;;;5082608;28;20059;-78
2022/12/31 00:29:21;;;;;;;12.00;7.18;;;11.60;99.90;;;;;;5064991;28;20586;-78
2022/12/31 00:31:47;;;;;;;12.13;7.88;;;11.60;99.90;;;;;;5084057;28;20112;-78
2022/12/31 00:34:12;;;;;;;13.65;8.48;;;11.60;99.90;;;;;;5044811;28;20048;-78
2022/12/31 00:36:38;;;;;;;13.68;9.23;;;11.60;99.90;;;;;;5045708;28;20052;-78
2022/12/31 00:39:07;;;;;;;16.92;11.23;;;11.60;99.90;;;;;;5088528;28;20078;-78
2022/12/31 00:41:33;;;;;;;17.42;11.75;;;11.60;99.90;;;;;;5067019;28;20419;-78
2022/12/31 00:43:59;;;;;;;19.08;14.70;;;11.60;99.90;;;;;;5072348;28;20137;-77
2022/12/31 00:46:25;;;;;;;22.10;18.92;;;11.60;99.90;;;;;;5047232;28;20101;-78
2022/12/31 00:48:51;;;;;;;25.95;23.25;;;11.60;99.90;;;;;;5067091;28;20059;-78
2022/12/31 00:51:20;;;;;;;27.52;24.73;;;11.60;99.90;;;;;;5082572;28;20075;-78
2022/12/31 00:53:46;;;;;;;28.15;25.38;;;11.60;99.90;;;;;;5087362;28;20476;-78
2022/12/31 00:56:14;;;;;;;25.77;23.00;;;11.60;99.90;;;;;;5088443;28;20050;-78
2022/12/31 00:58:40;;;;;;;29.90;26.80;;;11.60;99.90;;;;;;5067821;28;20109;-78
2022/12/31 01:01:18;;;;;;;42.03;37.88;;;11.60;99.90;;;;;;5068519;28;20040;-78
2022/12/31 01:03:45;;;;;;;54.80;48.92;;;11.60;99.90;;;;;;5086847;28;20043;-78
2022/12/31 01:06:11;;;;;;;63.70;57.15;;;11.60;99.90;;;;;;5086384;28;20075;-78
2022/12/31 01:08:36;;;;;;;61.22;55.33;;;11.60;99.90;;;;;;5086159;28;20091;-77
2022/12/31 01:11:18;;;;;;;56.00;50.63;;;11.50;99.90;;;;;;5083275;28;20114;-78
2022/12/31 01:13:51;;;;;;;47.42;42.47;;;11.60;99.90;;;;;;5082976;28;20036;-77
2022/12/31 01:16:20;;;;;;;27.98;25.08;;;11.60;99.90;;;;;;5083120;28;20275;-77
2022/12/31 01:18:46;;;;;;;15.38;12.38;;;11.60;99.90;;;;;;5084718;28;20113;-78
2022/12/31 01:21:13;;;;;;;14.95;9.75;;;11.60;99.90;;;;;;5081500;28;20099;-78
2022/12/31 01:23:39;;;;;;;13.80;10.27;;;11.60;99.90;;;;;;5082498;28;20047;-78
2022/12/31 01:26:06;;;;;;;12.55;9.30;;;11.60;99.90;;;;;;5086426;28;20044;-78
2022/12/31 01:28:32;;;;;;;12.45;8.93;;;11.60;99.90;;;;;;5084131;28;20093;-77
2022/12/31 01:31:01;;;;;;;10.52;9.07;;;11.60;99.90;;;;;;5060028;28;20484;-78
2022/12/31 01:33:27;;;;;;;11.00;8.38;;;11.60;99.90;;;;;;5064304;28;20040;-78
2022/12/31 01:35:52;;;;;;;11.50;8.20;;;11.60;99.90;;;;;;5083304;28;20048;-78
2022/12/31 01:38:18;;;;;;;9.13;7.80;;;11.60;99.90;;;;;;5057979;28;20040;-78
2022/12/31 01:40:44;;;;;;;11.05;8.20;;;11.60;99.90;;;;;;5082464;28;20455;-78
2022/12/31 01:43:16;;;;;;;8.88;7.28;;;11.60;99.90;;;;;;5066679;28;20104;-77
2022/12/31 01:45:44;;;;;;;9.13;6.07;;;11.70;99.90;;;;;;5081343;28;20047;-78
2022/12/31 01:48:12;;;;;;;6.70;5.60;;;11.60;99.90;;;;;;5083898;28;20041;-78
2022/12/31 01:50:39;;;;;;;9.57;5.50;;;11.70;99.90;;;;;;5083473;28;20135;-78
2022/12/31 01:53:09;;;;;;;6.28;5.13;;;11.60;99.90;;;;;;5062016;28;20048;-78
2022/12/31 01:55:39;;;;;;;9.15;4.82;;;11.60;99.90;;;;;;5077899;28;20096;-78
2022/12/31 01:58:09;;;;;;;7.00;4.68;;;11.60;99.90;;;;;;5077431;28;20464;-77
2022/12/31 02:00:35;;;;;;;7.85;4.28;;;11.60;99.90;;;;;;5060034;28;20582;-78
2022/12/31 02:03:02;;;;;;;5.35;2.92;;;11.60;99.90;;;;;;5080969;28;20043;-77
2022/12/31 02:05:37;;;;;;;5.43;3.20;;;11.60;99.90;;;;;;5082580;28;20126;-78
2022/12/31 02:08:04;;;;;;;5.13;3.50;;;11.60;99.90;;;;;;5077995;28;20070;-78
2022/12/31 02:10:29;;;;;;;5.22;2.85;;;11.60;99.90;;;;;;5063335;28;20085;-77
2022/12/31 02:12:55;;;;;;;5.40;3.03;;;11.60;99.90;;;;;;5060423;28;20414;-77
2022/12/31 02:15:30;;;;;;;4.88;2.90;;;11.60;99.90;;;;;;5084130;28;20048;-77
2022/12/31 02:18:12;;;;;;;5.35;2.40;;;11.60;99.90;;;;;;5084344;28;20040;-77
2022/12/31 02:20:56;;;;;;;4.03;2.25;;;11.60;99.90;;;;;;5078105;28;20515;-78
2022/12/31 02:23:34;;;;;;;5.13;2.55;;;11.60;99.90;;;;;;5060638;28;20047;-77
2022/12/31 02:26:03;;;;;;;5.25;2.38;;;11.60;99.90;;;;;;5082602;28;20044;-78
2022/12/31 02:29:07;;;;;;;4.00;2.10;;;11.60;99.90;;;;;;5094810;28;20052;-77
2022/12/31 02:31:43;;;;;;;4.30;1.67;;;11.60;99.90;;;;;;5074549;28;20072;-78
2022/12/31 02:34:29;;;;;;;2.38;1.50;;;11.60;99.90;;;;;;5082927;28;20115;-78
2022/12/31 02:36:57;;;;;;;4.43;1.73;;;11.60;99.90;;;;;;5063297;28;20430;-78
2022/12/31 02:39:23;;;;;;;4.95;1.52;;;11.60;99.90;;;;;;5075881;28;20055;-78
2022/12/31 02:41:49;;;;;;;2.58;1.40;;;11.50;99.90;;;;;;5092416;28;20048;-78
2022/12/31 02:44:30;;;;;;;4.47;1.65;;;11.60;99.90;;;;;;5082231;28;20123;-78
2022/12/31 02:47:07;;;;;;;4.43;1.90;;;11.50;99.90;;;;;;5051692;28;20059;-77
2022/12/31 02:50:09;;;;;;;4.20;1.70;;;11.50;99.90;;;;;;5064726;28;20217;-78
2022/12/31 02:53:04;;;;;;;5.13;2.42;;;11.50;99.90;;;;;;5084653;28;20055;-78
2022/12/31 02:56:03;;;;;;;4.88;2.60;;;11.50;99.90;;;;;;5083630;28;20040;-78
2022/12/31 03:02:20;;;;;;;5.30;2.47;;;11.40;99.90;;;;;;5085192;28;20376;-78
2022/12/31 03:04:30;;;;;;;4.03;2.20;;;11.40;99.90;;;;;;5061508;28;20048;-78
2022/12/31 03:07:03;;;;;;;3.78;2.13;;;11.40;99.90;;;;;;5083526;28;20138;-78
2022/12/31 03:09:29;;;;;;;4.78;2.50;;;11.40;99.90;;;;;;5088130;28;20067;-78
2022/12/31 03:14:39;;;;;;;3.47;2.38;;;11.40;99.90;;;;;;5089421;28;20048;-78
2022/12/31 03:17:05;;;;;;;5.60;2.50;;;11.40;99.90;;;;;;5087979;28;20051;-78
2022/12/31 03:22:27;;;;;;;4.35;2.42;;;11.40;99.90;;;;;;5081189;28;20082;-78
2022/12/31 03:27:45;;;;;;;6.30;2.60;;;11.40;99.90;;;;;;5087164;28;20044;-78
2022/12/31 03:30:12;;;;;;;5.20;2.23;;;11.30;99.90;;;;;;5085804;28;20036;-78
2022/12/31 03:32:38;;;;;;;;;;;11.30;99.90;;;;;;5084409;28;20051;-78
2022/12/31 03:35:04;;;;;;;5.60;2.65;;;11.30;99.90;;;;;;5067516;28;19919;-78
2022/12/31 03:37:30;;;;;;;3.73;2.60;;;11.30;99.90;;;;;;5079975;28;20036;-78
2022/12/31 03:39:56;;;;;;;5.47;2.70;;;11.30;99.90;;;;;;5089100;28;20142;-77
2022/12/31 03:42:21;;;;;;;5.38;3.10;;;11.20;99.90;;;;;;5088552;28;20044;-77
2022/12/31 03:44:47;;;;;;;10.57;6.10;;;11.30;99.90;;;;;;5069185;28;20514;-77
2022/12/31 03:47:13;;;;;;;14.02;8.15;;;11.30;99.90;;;;;;5089241;28;20044;-77
2022/12/31 03:49:38;;;;;;;9.70;6.13;;;11.20;99.90;;;;;;5087462;28;20415;-77
2022/12/31 03:52:05;;;;;;;7.97;5.00;;;11.30;99.90;;;;;;5086290;28;20058;-77
2022/12/31 03:54:31;;;;;;;5.72;4.20;;;11.30;99.90;;;;;;5080038;28;20071;-77
2022/12/31 03:56:57;;;;;;;5.30;4.60;;;11.30;99.90;;;;;;5068376;28;20044;-77
2022/12/31 03:59:23;;;;;;;7.10;5.18;;;11.20;99.90;;;;;;5078581;28;20046;-77
2022/12/31 04:01:48;;;;;;;5.18;4.65;;;11.20;99.90;;;;;;5087459;28;20051;-77
2022/12/31 04:04:14;;;;;;;6.28;4.75;;;11.30;99.90;;;;;;5089194;28;20453;-78
2022/12/31 04:06:39;;;;;;;7.15;4.15;;;11.20;99.90;;;;;;5084883;28;20069;-77
2022/12/31 04:09:05;;;;;;;6.55;4.30;;;11.30;99.90;;;;;;5061427;28;20047;-77
2022/12/31 04:11:31;;;;;;;5.55;4.10;;;11.30;99.90;;;;;;5085472;28;20043;-77
2022/12/31 04:13:58;;;;;;;5.38;4.53;;;11.30;99.90;;;;;;5085973;28;20097;-77
2022/12/31 04:16:24;;;;;;;5.32;4.82;;;11.30;99.90;;;;;;5086717;28;20123;-78
2022/12/31 04:18:49;;;;;;;7.43;4.80;;;11.30;99.90;;;;;;5084876;28;20127;-78
2022/12/31 04:21:15;;;;;;;8.18;6.00;;;11.30;99.90;;;;;;5081280;28;20040;-77
2022/12/31 04:23:41;;;;;;;8.20;6.05;;;11.30;99.90;;;;;;5067026;28;20577;-78
2022/12/31 04:26:06;;;;;;;8.32;4.93;;;11.30;99.90;;;;;;5068666;28;20044;-78
2022/12/31 04:28:32;;;;;;;5.32;3.95;;;11.30;99.90;;;;;;5062794;28;20097;-78
2022/12/31 04:30:57;;;;;;;5.15;2.90;;;11.30;99.90;;;;;;5084915;28;20059;-78
2022/12/31 04:33:23;;;;;;;4.80;2.95;;;11.30;99.90;;;;;;5082334;28;20036;-78
2022/12/31 04:35:49;;;;;;;3.65;2.70;;;11.30;99.90;;;;;;5086977;28;20059;-78
2022/12/31 04:38:14;;;;;;;3.70;2.42;;;11.30;99.90;;;;;;5065594;28;20040;-78
2022/12/31 04:41:15;;;;;;;4.05;2.60;;;11.30;99.90;;;;;;5065119;28;20152;-78
2022/12/31 04:43:26;;;;;;;4.90;2.40;;;11.30;99.90;;;;;;5066814;28;20062;-77
2022/12/31 04:45:51;;;;;;;3.67;2.65;;;11.30;99.90;;;;;;5067459;28;20048;-78
2022/12/31 04:48:17;;;;;;;4.80;2.45;;;11.30;99.90;;;;;;5061064;28;20443;-77
2022/12/31 04:50:44;;;;;;;3.92;2.15;;;11.30;99.90;;;;;;5081221;28;20471;-78
2022/12/31 04:53:10;;;;;;;;;;;11.20;99.90;;;;;;5065116;28;20075;-78
2022/12/31 04:55:35;;;;;;;3.38;2.10;;;11.20;99.90;;;;;;5087831;28;20359;-78
2022/12/31 04:58:01;;;;;;;3.63;2.10;;;11.20;99.90;;;;;;5079360;28;20767;-77
2022/12/31 05:00:27;;;;;;;4.18;1.70;;;11.20;99.90;;;;;;5083641;28;20092;-78
2022/12/31 05:02:52;;;;;;;2.20;1.70;;;11.20;99.90;;;;;;5066151;28;20044;-78
2022/12/31 05:05:18;;;;;;;3.25;1.75;;;11.20;99.90;;;;;;5086148;28;20055;-77
2022/12/31 05:07:43;;;;;;;4.50;1.60;;;11.20;99.90;;;;;;5087420;28;20036;-77
2022/12/31 05:10:09;;;;;;;3.35;1.90;;;11.20;99.90;;;;;;5084993;28;20139;-77
2022/12/31 05:12:35;;;;;;;3.92;2.42;;;11.20;99.90;;;;;;5087171;28;20118;-77
2022/12/31 05:15:00;;;;;;;6.40;4.10;;;11.10;99.90;;;;;;5073585;28;20467;-78
2022/12/31 05:17:26;;;;;;;7.78;4.07;;;11.20;99.90;;;;;;5084265;28;20101;-77
2022/12/31 05:19:51;;;;;;;5.45;3.35;;;11.10;99.90;;;;;;5085519;28;20105;-77
2022/12/31 05:22:29;;;;;;;6.18;3.55;;;11.10;99.90;;;;;;5068869;28;20464;-77
2022/12/31 05:24:59;;;;;;;6.72;4.57;;;11.10;99.90;;;;;;5081732;28;20032;-78
2022/12/31 05:27:26;;;;;;;7.85;5.30;;;11.20;99.90;;;;;;5084897;28;20494;-78
2022/12/31 05:29:51;;;;;;;9.70;6.28;;;11.20;99.90;;;;;;5067330;28;20572;-77
2022/12/31 05:32:17;;;;;;;10.52;7.53;;;11.20;99.90;;;;;;5063420;28;20085;-78
2022/12/31 05:34:43;;;;;;;9.95;7.95;;;11.20;99.90;;;;;;5065063;28;20044;-78
2022/12/31 05:37:08;;;;;;;10.70;8.07;;;11.20;99.90;;;;;;5083437;28;20105;-78
2022/12/31 05:39:34;;;;;;;9.07;7.68;;;11.20;99.90;;;;;;5059853;28;20447;-77
2022/12/31 05:42:00;;;;;;;9.40;8.43;;;11.20;99.90;;;;;;5077147;28;20069;-77
2022/12/31 05:44:25;;;;;;;8.88;7.90;;;11.20;99.90;;;;;;5063674;28;20848;-78
2022/12/31 05:46:51;;;;;;;10.00;8.60;;;11.20;99.90;;;;;;5066203;28;20040;-77
2022/12/31 05:49:17;;;;;;;9.45;8.45;;;11.20;99.90;;;;;;5068928;28;20059;-78
2022/12/31 05:51:42;;;;;;;12.27;9.00;;;11.20;99.90;;;;;;5080721;28;20052;-77
2022/12/31 05:54:08;;;;;;;9.18;7.90;;;11.20;99.90;;;;;;5080385;28;20414;-77
2022/12/31 05:56:34;;;;;;;8.70;7.35;;;11.20;99.90;;;;;;5084983;28;20036;-77
2022/12/31 05:59:00;;;;;;;8.40;7.50;;;11.20;99.90;;;;;;5077669;28;20113;-77
2022/12/31 06:01:25;;;;;;;8.02;5.85;;;11.20;99.90;;;;;;5075610;28;20485;-77
2022/12/31 06:03:51;;;;;;;6.70;5.53;;;11.20;99.90;;;;;;5075109;28;20065;-77
2022/12/31 06:06:17;;;;;;;7.97;5.85;;;11.20;99.90;;;;;;5075359;28;20157;-77
2022/12/31 06:08:42;;;;;;;7.43;5.72;;;11.20;99.90;;;;;;5074291;28;20055;-77
2022/12/31 06:11:08;;;;;;;8.52;5.68;;;11.30;99.90;;;;;;5083953;28;20039;-77
2022/12/31 06:13:33;;;;;;;7.90;5.95;;;11.20;99.90;;;;;;5085669;28;20483;-77
2022/12/31 06:16:09;;;;;;;6.07;5.18;;;11.30;99.90;;;;;;5084133;28;20040;-77
2022/12/31 06:18:35;;;;;;;7.25;5.10;;;11.30;99.90;;;;;;5086239;28;20040;-77
2022/12/31 06:21:01;;;;;;;7.20;4.40;;;11.20;99.90;;;;;;5064004;28;20055;-77
2022/12/31 06:23:27;;;;;;;5.70;4.68;;;11.20;99.90;;;;;;5074813;28;20403;-77
2022/12/31 06:25:52;;;;;;;6.00;4.40;;;11.20;99.90;;;;;;5081814;28;20040;-77
2022/12/31 06:28:18;;;;;;;6.03;4.10;;;11.30;99.90;;;;;;5084425;28;20735;-77
2022/12/31 06:30:43;;;;;;;5.85;4.07;;;11.20;99.90;;;;;;5080131;28;20261;-77
2022/12/31 06:33:09;;;;;;;5.13;4.15;;;11.20;99.90;;;;;;5076858;28;20054;-77
2022/12/31 06:35:35;;;;;;;6.28;4.55;;;11.20;99.90;;;;;;5079542;28;20067;-77
2022/12/31 06:38:00;;;;;;;5.47;3.85;;;11.20;99.90;;;;;;5077472;28;20035;-77
2022/12/31 06:40:26;;;;;;;5.38;3.90;;;11.20;99.90;;;;;;5081522;28;20491;-78
2022/12/31 06:42:52;;;;;;;4.65;3.90;;;11.20;99.90;;;;;;5080327;28;20040;-77
2022/12/31 06:45:18;;;;;;;4.60;4.07;;;11.20;99.90;;;;;;5088756;28;20043;-77
2022/12/31 06:47:44;;;;;;;5.10;3.60;;;11.20;99.90;;;;;;5090099;28;20036;-78
2022/12/31 06:50:10;;;;;;;4.85;4.32;;;11.20;99.90;;;;;;5086843;28;20071;-77
2022/12/31 06:52:36;;;;;;;6.05;4.90;;;11.20;99.90;;;;;;5071064;28;20128;-77
2022/12/31 06:55:03;;;;;;;6.68;4.70;;;11.20;99.90;;;;;;5083573;28;20056;-77
2022/12/31 06:57:29;;;;;;;4.93;4.43;;;11.20;99.90;;;;;;5087254;28;20040;-77
2022/12/31 06:59:54;;;;;;;7.80;4.65;;;11.20;99.90;;;;;;5088821;28;20506;-77
2022/12/31 07:02:35;;;;;;;5.72;4.68;;;11.20;99.90;;;;;;5066684;28;20039;-77
2022/12/31 07:05:24;;;;;;;5.97;4.97;;;11.20;99.90;;;;;;5089489;28;20040;-82
2022/12/31 07:08:24;;;;;;;8.13;6.18;;;11.20;99.90;;;;;;5086900;28;20032;-76
2022/12/31 07:10:53;;;;;;;5.78;5.13;;;11.20;99.90;;;;;;5086485;28;20048;-75
2022/12/31 07:13:39;;;;;;;6.70;5.55;;;11.20;99.90;;;;;;5088086;28;20078;-75
2022/12/31 07:16:12;;;;;;;7.43;5.32;;;11.20;99.90;;;;;;5085670;28;20055;-75
2022/12/31 07:18:47;;;;;;;6.68;5.97;;;11.30;99.90;;;;;;5062624;28;20104;-76
2022/12/31 07:21:15;;;;;;;8.65;7.13;;;11.30;99.90;;;;;;5067210;28;20044;-75
2022/12/31 07:23:42;;;;;;;8.40;7.25;;;11.30;99.90;;;;;;5079946;28;20074;-75
2022/12/31 07:26:23;;;;;;;9.05;7.47;;;11.30;99.90;;;;;;5065287;28;20258;-76
2022/12/31 07:29:10;;;;;;;8.55;7.18;;;11.30;99.90;;;;;;5083567;28;20101;-76
2022/12/31 07:31:52;;;;;;;8.93;6.60;;;11.30;99.90;;;;;;5080378;28;20444;-75
2022/12/31 07:34:30;;;;;;;8.68;6.63;;;11.30;99.90;;;;;;5066206;28;20083;-75
2022/12/31 07:37:30;;;;;;;7.85;6.47;;;11.30;99.90;;;;;;5082690;28;20096;-76
2022/12/31 07:40:26;;;;;;;8.82;6.38;;;11.30;99.90;;;;;;5082793;28;20028;-75
2022/12/31 07:43:44;;;;;;;9.63;6.60;;;11.30;99.90;;;;;;5083547;28;20569;-76
2022/12/31 07:46:47;;;;;;;10.57;6.65;;;11.30;99.90;;;;;;4977827;28;20189;-76
2022/12/31 07:49:14;;;;;;;8.90;6.25;;;11.30;99.90;;;;;;5085573;28;20044;-76
2022/12/31 07:51:41;;;;;;;8.98;6.22;;;11.30;99.90;;;;;;5064718;28;20056;-76
2022/12/31 07:54:08;;;;;;;8.90;5.95;;;11.30;99.90;;;;;;5102688;28;20130;-76
2022/12/31 07:56:34;;;;;;;7.60;6.00;;;11.30;99.90;;;;;;5087233;28;20039;-76
2022/12/31 07:59:11;;;;;;;7.82;6.38;;;11.30;99.90;;;;;;5088144;28;20073;-76
2022/12/31 08:02:00;;;;;;;9.25;6.05;;;11.40;99.90;;;;;;5085640;28;20072;-76
2022/12/31 08:04:38;;;;;;;9.77;7.10;;;11.40;99.90;;;;;;5081219;28;20455;-76
2022/12/31 08:07:25;;;;;;;8.05;6.05;;;11.40;99.90;;;;;;5086785;28;20127;-76
2022/12/31 08:10:08;;;;;;;7.93;5.95;;;11.40;99.90;;;;;;5065153;28;20055;-76
2022/12/31 08:12:36;;;;;;;7.32;5.68;;;11.40;99.90;;;;;;5070400;28;20143;-76
2022/12/31 08:15:11;;;;;;;9.02;5.95;;;11.40;99.90;;;;;;5065700;28;20071;-76
2022/12/31 08:17:40;;;;;;;7.15;5.68;;;11.40;99.90;;;;;;5066023;28;20071;-76
2022/12/31 08:20:06;;;;;;;7.20;5.75;;;11.50;99.90;;;;;;5065313;28;20098;-76
2022/12/31 08:22:48;;;;;;;6.63;5.13;;;11.50;99.90;;;;;;5087195;28;20047;-76
2022/12/31 08:25:39;;;;;;;6.43;5.28;;;11.50;99.90;;;;;;5067608;28;20127;-74
2022/12/31 08:28:22;;;;;;;7.43;5.28;;;11.60;99.90;;;;;;5089051;28;20082;-77
2022/12/31 08:30:54;;;;;;;7.28;5.35;;;11.60;99.90;;;;;;5061172;28;20105;-76
2022/12/31 08:33:34;;;;;;;5.97;5.22;;;11.60;99.90;;;;;;5064664;28;20047;-73
2022/12/31 08:36:21;;;;;;;6.63;4.97;;;11.70;99.90;;;;;;5055480;28;20491;-80
2022/12/31 08:39:15;;;;;;;8.07;5.90;;;11.70;99.90;;;;;;5063196;28;20044;-77
2022/12/31 08:41:44;;;;;;;6.88;5.90;;;11.80;99.90;;;;;;5064799;28;20051;-82
2022/12/31 08:44:13;;;;;;;7.88;6.13;;;11.80;99.90;;;;;;5068966;28;20097;-89
2022/12/31 08:46:48;;;;;;;7.75;6.47;;;11.80;99.90;;;;;;5072135;28;20044;-82
2022/12/31 08:49:14;;;;;;;8.57;6.47;;;11.90;99.90;;;;;;5087657;28;20051;-82
2022/12/31 08:51:40;;;;;;;7.68;6.47;;;11.90;99.90;;;;;;5087703;28;20052;-81
2022/12/31 08:54:10;;;;;;;7.43;6.35;;;11.90;99.90;;;;;;5088225;28;20036;-92
2022/12/31 08:56:50;;;;;;;8.45;6.90;;;12.00;99.90;;;;;;5085975;28;20093;-85
2022/12/31 08:59:21;;;;;;;7.15;5.95;;;12.00;99.90;;;;;;5100712;28;20039;-82
2022/12/31 09:01:53;;;;;;;8.32;6.32;;;12.00;99.90;;;;;;5083771;28;20119;-81
2022/12/31 09:04:49;;;;;;;7.43;6.15;;;12.00;99.90;;;;;;5067841;28;20483;-81
2022/12/31 09:07:22;;;;;;;7.35;5.75;;;12.10;99.90;;;;;;5088429;28;20043;-80
2022/12/31 09:09:55;;;;;;;6.28;5.00;;;12.10;99.90;;;;;;5070814;28;20048;-77
2022/12/31 09:12:32;;;;;;;6.88;5.40;;;12.10;99.90;;;;;;5069705;28;20140;-75
2022/12/31 09:15:04;;;;;;;6.03;5.13;;;12.10;99.90;;;;;;5084290;28;20474;-75
2022/12/31 09:17:44;;;;;;;5.78;5.07;;;12.20;99.90;;;;;;5081008;28;20062;-84
2022/12/31 09:20:31;;;;;;;7.85;6.28;;;12.20;99.90;;;;;;5085680;28;20091;-79
2022/12/31 09:23:00;;;;;;;7.30;5.65;;;12.20;99.90;;;;;;5084518;28;20158;-80
2022/12/31 09:25:27;;;;;;;5.68;4.40;;;12.20;99.90;;;;;;5068498;28;20086;-74
2022/12/31 09:28:24;;;;;;;6.18;4.38;;;12.30;99.90;;;;;;5068845;28;20047;-74
2022/12/31 09:31:06;;;;;;;6.22;4.88;;;12.30;99.90;;;;;;5068202;28;20075;-78
2022/12/31 09:33:41;;;;;;;6.18;4.80;;;12.30;99.90;;;;;;5082871;28;20040;-76
2022/12/31 09:36:12;;;;;;;3.92;3.53;;;12.40;99.90;;;;;;5067938;28;20048;-77
2022/12/31 09:38:59;;;;;;;7.50;3.97;;;12.40;99.90;;;;;;5063519;28;20471;-79
2022/12/31 09:41:38;;;;;;;4.35;3.60;;;12.50;99.90;;;;;;5082058;28;20734;-78
2022/12/31 09:44:13;;;;;;;5.78;3.60;;;12.40;99.90;;;;;;5070506;28;20130;-78
2022/12/31 09:46:54;;;;;;;5.35;4.03;;;12.50;99.90;;;;;;5087717;28;20066;-80
2022/12/31 09:49:39;;;;;;;5.43;3.30;;;12.40;99.90;;;;;;5070478;28;20119;-81
2022/12/31 09:52:13;;;;;;;3.97;1.80;;;12.40;99.90;;;;;;5064481;28;20499;-79
2022/12/31 09:54:38;;;;;;;3.35;1.83;;;12.50;99.90;;;;;;5066553;28;20499;-77
2022/12/31 09:57:32;;;;;;;2.25;1.50;;;12.50;99.90;;;;;;5068978;28;20059;-77
2022/12/31 10:00:19;;;;;;;2.40;1.42;;;12.50;99.90;;;;;;5068944;28;20144;-77
2022/12/31 10:03:14;;;;;;;2.88;2.10;;;12.50;99.90;;;;;;5068384;28;20040;-77
2022/12/31 10:06:08;;;;;;;17.98;15.68;;;12.60;99.90;;;;;;5082314;28;20048;-80
2022/12/31 10:09:03;;;;;;;1.83;1.10;;;12.60;99.90;;;;;;5063298;28;20545;-80
2022/12/31 10:12:26;;;;;;;2.00;1.20;;;12.60;99.90;;;;;;5082561;28;20036;-75
2022/12/31 10:14:55;;;;;;;2.85;1.02;;;12.60;99.90;;;;;;5014118;28;20457;-76
2022/12/31 10:17:54;;;;;;;2.58;1.90;;;12.70;99.90;;;;;;5020598;28;20041;-82
2022/12/31 10:20:40;;;;;;;6.05;3.40;;;12.70;99.90;;;;;;5067188;28;20064;-79
2022/12/31 10:23:30;;;;;;;33.10;29.77;;;12.80;99.90;;;;;;5064227;28;20059;-81
2022/12/31 10:26:43;;;;;;;3.88;2.45;;;12.80;99.90;;;;;;5067951;28;20208;-80
2022/12/31 10:29:13;;;;;;;6.38;4.22;;;12.80;99.90;;;;;;5009790;28;20068;-77
2022/12/31 10:31:39;;;;;;;4.32;2.47;;;12.80;99.90;;;;;;5003756;28;20136;-78
2022/12/31 10:34:37;;;;;;;27.20;24.58;;;12.80;99.90;;;;;;5032472;28;20134;-79
2022/12/31 10:37:05;;;;;;;9.30;7.45;;;12.80;99.90;;;;;;5068174;28;20173;-83
2022/12/31 10:39:48;;;;;;;12.40;11.10;;;12.90;99.90;;;;;;5087374;28;20097;-80
2022/12/31 10:42:13;;;;;;;13.75;12.43;;;12.90;99.90;;;;;;5083250;28;20039;-72
2022/12/31 10:45:03;;;;;;;39.28;35.28;;;12.90;99.90;;;;;;5084790;28;20047;-82
2022/12/31 10:47:35;;;;;;;15.43;12.52;;;12.90;99.90;;;;;;5060799;28;20048;-83
2022/12/31 10:50:16;;;;;;;28.05;24.98;;;12.90;99.90;;;;;;5085501;28;20066;-80
2022/12/31 10:53:20;;;;;;;7.30;4.80;;;12.90;99.90;;;;;;5083112;28;20074;-82
2022/12/31 10:56:01;;;;;;;11.40;6.32;;;12.90;99.90;;;;;;5071035;28;20200;-79
2022/12/31 10:59:03;;;;;;;5.63;3.03;;;13.00;99.90;;;;;;5062423;28;20052;-82
2022/12/31 11:01:57;;;;;;;26.55;20.02;;;13.00;99.90;;;;;;5062528;28;20055;-79
2022/12/31 11:04:54;;;;;;;21.65;16.15;;;13.00;99.90;;;;;;5094724;28;20040;-83
2022/12/31 11:07:54;;;;;;;7.95;4.10;;;13.10;99.90;;;;;;5084445;28;20048;-84
2022/12/31 11:10:41;;;;;;;27.95;24.95;;;13.10;99.90;;;;;;5067154;28;20042;-84
2022/12/31 11:13:25;;;;;;;8.32;6.40;;;13.10;99.90;;;;;;5086922;28;20508;-87
2022/12/31 11:16:18;;;;;;;12.93;9.70;;;13.10;99.90;;;;;;5084580;28;20044;-86
2022/12/31 11:19:14;;;;;;;11.52;8.30;;;13.10;99.90;;;;;;5068449;28;20058;-89
2022/12/31 11:21:44;;;;;;;9.70;6.53;;;13.10;99.90;;;;;;5059725;28;20052;-83
2022/12/31 11:24:31;;;;;;;5.90;3.33;;;13.10;99.90;;;;;;5084055;28;20044;-82
2022/12/31 11:27:16;;;;;;;;;;;13.10;99.90;;;;;;5068270;28;20044;-81
2022/12/31 11:30:00;;;;;;;29.42;26.60;;;13.20;99.90;;;;;;5069694;28;20602;-77
2022/12/31 11:32:40;;;;;;;84.78;75.97;;;13.20;99.90;;;;;;5104202;27;20076;-87
2022/12/31 11:35:42;;;;;;;56.65;51.90;;;13.20;99.90;;;;;;5084000;28;20379;-72
2022/12/31 11:38:19;;;;;;;95.68;87.80;;;13.20;99.90;;;;;;5068541;28;20047;-84
2022/12/31 11:41:09;;;;;;;94.60;87.25;;;13.30;99.90;;;;;;5090139;28;20067;-78
2022/12/31 11:43:44;;;;;;;64.50;59.03;;;13.30;99.90;;;;;;5086660;28;20670;-80
2022/12/31 11:46:39;;;;;;;94.55;87.05;;;13.30;99.90;;;;;;5088569;28;20037;-77
2022/12/31 11:49:29;;;;;;;157.85;144.38;;;13.30;99.90;;;;;;5088286;28;20047;-81
2022/12/31 11:52:08;;;;;;;44.58;40.45;;;13.30;99.90;;;;;;5070798;28;20598;-76
2022/12/31 11:54:58;;;;;;;75.80;69.38;;;13.30;99.90;;;;;;5068019;28;20484;-75
2022/12/31 11:57:47;;;;;;;64.50;58.47;;;13.30;99.90;;;;;;5051790;28;20050;-79
2022/12/31 12:00:19;;;;;;;21.17;19.00;;;13.30;99.90;;;;;;5100532;27;20059;-78
2022/12/31 12:02:48;;;;;;;25.73;23.02;;;13.30;99.90;;;;;;5090644;28;20508;-80
2022/12/31 12:05:19;;;;;;;25.15;22.40;;;13.30;99.90;;;;;;5072692;28;20062;-81
2022/12/31 12:07:45;;;;;;;35.55;31.88;;;13.40;99.90;;;;;;5069377;28;20049;-76
2022/12/31 12:10:22;;;;;;;25.67;21.50;;;13.40;99.90;;;;;;5070492;28;20051;-75
2022/12/31 12:12:47;;;;;;;121.60;111.10;;;13.40;99.90;;;;;;5089133;28;20090;-77
2022/12/31 12:15:22;;;;;;;37.22;33.75;;;13.50;99.90;;;;;;5104752;27;20059;-77
2022/12/31 12:17:56;;;;;;;22.90;20.65;;;13.50;99.90;;;;;;5069513;28;20028;-74
2022/12/31 12:20:30;;;;;;;62.85;57.58;;;13.50;99.90;;;;;;5084112;28;20051;-72
2022/12/31 12:22:57;;;;;;;79.15;72.35;;;13.60;99.90;;;;;;5065481;28;20522;-72
2022/12/31 12:25:26;;;;;;;23.67;21.33;;;13.60;99.90;;;;;;5070432;28;20101;-72
2022/12/31 12:27:53;;;;;;;17.40;14.90;;;13.60;99.90;;;;;;5085962;28;20040;-74
2022/12/31 12:30:26;;;;;;;20.23;18.27;;;13.70;99.90;;;;;;5069221;28;20513;-75
2022/12/31 12:33:00;;;;;;;21.77;19.50;;;13.70;99.90;;;;;;5081812;28;20296;-80
2022/12/31 12:35:31;;;;;;;9.52;7.65;;;13.70;99.90;;;;;;5090276;28;20039;-83
2022/12/31 12:38:15;;;;;;;117.95;102.25;;;13.70;99.90;;;;;;5099589;27;20040;-89
2022/12/31 12:40:50;;;;;;;16.05;12.18;;;13.70;99.90;;;;;;5081948;28;20143;-87
2022/12/31 12:43:22;;;;;;;10.70;7.65;;;13.80;99.90;;;;;;5066010;28;20040;-84
2022/12/31 12:45:47;;;;;;;43.85;37.13;;;13.80;99.90;;;;;;5070292;28;20062;-88
2022/12/31 12:48:22;;;;;;;13.80;11.75;;;13.70;99.90;;;;;;5087676;28;20028;-85
2022/12/31 12:50:48;;;;;;;7.93;5.90;;;13.70;99.90;;;;;;5070461;28;20261;-85
2022/12/31 12:53:37;;;;;;;19.15;17.13;;;13.70;99.90;;;;;;5087484;28;20055;-92
2022/12/31 12:56:29;;;;;;;18.40;14.50;;;13.70;99.90;;;;;;5083355;28;20507;-90
2022/12/31 12:59:31;;;;;;;29.92;26.85;;;13.70;99.90;;;;;;5082520;28;20043;-86
2022/12/31 13:02:02;;;;;;;38.75;35.13;;;13.70;99.90;;;;;;5061440;28;20587;-77
2022/12/31 13:05:20;;;;;;;10.43;9.32;;;13.70;99.90;;;;;;5066755;28;20425;-77
2022/12/31 13:08:14;;;;;;;63.67;57.22;;;13.70;99.90;;;;;;5064301;28;20123;-77
2022/12/31 13:11:10;;;;;;;47.60;43.17;;;13.70;99.90;;;;;;5104488;28;20056;-77
2022/12/31 13:14:05;;;;;;;99.65;90.38;;;13.70;99.90;;;;;;5069968;28;20058;-77
2022/12/31 13:16:34;;;;;;;118.30;107.07;;;13.70;99.90;;;;;;5088346;28;20047;-77
2022/12/31 13:19:18;;;;;;;123.07;110.72;;;13.70;99.90;;;;;;5088688;28;20075;-78
2022/12/31 13:21:55;;;;;;;32.17;28.92;;;13.60;99.90;;;;;;5089293;28;20101;-77
2022/12/31 13:24:44;;;;;;;128.88;115.68;;;13.70;99.90;;;;;;5089863;28;20043;-77
2022/12/31 13:27:13;;;;;;;36.70;32.90;;;13.70;99.90;;;;;;5085555;28;20528;-78